Time;durP1;ratioP1;P1;durP2;ratioP2;P2;SDS_P1;SDS_P2;PMS_P1;PMS_P2;Temp;Humidity;BMP_temperature;BMP_pressure;BME280_temperature;BME280_humidity;BME280_pressure;Samples;Min_cycle;Max_cycle;Signal;HPM_P1;HPM_P2
2021/03/06 00:00:10;;;;;;;2.08;1.10;;;;;;;1.22;50.43;100673.42;1674229;85;21047;-59
2021/03/06 00:02:38;;;;;;;3.37;0.90;;;;;;;1.18;50.62;100676.02;1674274;85;21309;-59
2021/03/06 00:05:07;;;;;;;2.20;1.00;;;;;;;1.19;50.96;100677.73;1674172;85;21145;-58
2021/03/06 00:07:36;;;;;;;2.55;0.80;;;;;;;1.17;50.83;100684.61;1674294;85;21326;-58
2021/03/06 00:10:05;;;;;;;3.22;1.17;;;;;;;1.17;50.77;100683.76;1674138;85;21355;-58
2021/03/06 00:12:33;;;;;;;2.12;1.00;;;;;;;1.16;50.72;100687.44;1674145;85;21864;-59
2021/03/06 00:15:00;;;;;;;2.10;1.10;;;;;;;1.10;50.63;100684.77;1674186;85;21340;-59
2021/03/06 00:17:28;;;;;;;3.15;0.90;;;;;;;1.08;50.66;100683.19;1674316;85;21066;-59
2021/03/06 00:19:56;;;;;;;4.50;1.00;;;;;;;1.09;50.84;100695.20;1674139;85;21193;-59
2021/03/06 00:22:23;;;;;;;2.42;1.05;;;;;;;1.09;50.75;100696.55;1674168;85;21293;-58
2021/03/06 00:24:50;;;;;;;2.27;1.10;;;;;;;1.05;50.55;100691.55;1674172;85;21095;-59
2021/03/06 00:27:18;;;;;;;2.42;0.90;;;;;;;0.98;50.50;100687.66;1673937;85;21413;-59
2021/03/06 00:29:45;;;;;;;2.05;0.90;;;;;;;0.91;50.48;100693.56;1674155;85;21123;-59
2021/03/06 00:32:12;;;;;;;2.42;0.80;;;;;;;0.90;50.88;100694.55;1674176;85;21344;-59
2021/03/06 00:34:40;;;;;;;2.25;1.10;;;;;;;0.86;51.05;100687.70;1674172;85;21201;-59
2021/03/06 00:37:07;;;;;;;2.45;1.00;;;;;;;0.87;51.46;100693.95;1674087;85;21806;-58
2021/03/06 00:39:35;;;;;;;1.80;0.78;;;;;;;0.84;51.19;100696.41;1674182;85;21817;-58
2021/03/06 00:42:03;;;;;;;2.00;0.88;;;;;;;0.82;50.95;100692.98;1674147;85;21787;-58
2021/03/06 00:44:32;;;;;;;3.22;0.90;;;;;;;0.79;50.99;100699.98;1674140;85;21086;-58
2021/03/06 00:46:59;;;;;;;2.80;0.65;;;;;;;0.77;50.63;100703.30;1674096;85;21811;-58
2021/03/06 00:49:28;;;;;;;5.22;1.00;;;;;;;0.70;50.50;100692.66;1674127;85;21189;-58
2021/03/06 00:51:56;;;;;;;3.27;0.85;;;;;;;0.62;50.64;100692.41;1650573;85;21074;-59
2021/03/06 00:54:24;;;;;;;1.32;0.70;;;;;;;0.58;50.76;100696.34;1674168;85;21337;-58
2021/03/06 00:56:52;;;;;;;2.70;1.10;;;;;;;0.56;50.60;100690.22;1674090;85;21319;-59
2021/03/06 00:59:20;;;;;;;1.90;0.80;;;;;;;0.54;50.24;100689.48;1674324;85;21156;-58
2021/03/06 01:01:49;;;;;;;1.87;0.65;;;;;;;0.52;49.95;100697.70;1674123;85;21047;-58
2021/03/06 01:04:17;;;;;;;1.72;0.90;;;;;;;0.54;49.74;100693.53;1650515;85;21134;-58
2021/03/06 01:06:44;;;;;;;4.03;0.85;;;;;;;0.59;49.33;100700.75;1674108;85;21071;-58
2021/03/06 01:09:12;;;;;;;2.90;0.90;;;;;;;0.58;49.12;100700.38;1674186;85;21352;-58
2021/03/06 01:11:39;;;;;;;6.33;0.80;;;;;;;0.60;49.18;100693.03;1674132;85;21156;-58
2021/03/06 01:14:07;;;;;;;3.72;0.82;;;;;;;0.60;49.20;100697.07;1674069;85;21396;-58
2021/03/06 01:16:34;;;;;;;1.70;0.70;;;;;;;0.55;49.04;100697.94;1674095;85;21850;-58
2021/03/06 01:19:02;;;;;;;2.22;0.88;;;;;;;0.53;48.81;100709.34;1674100;85;21154;-58
2021/03/06 01:21:30;;;;;;;1.75;0.80;;;;;;;0.51;47.97;100709.95;1674352;85;21312;-59
2021/03/06 01:23:58;;;;;;;2.02;0.93;;;;;;;0.43;47.55;100706.55;1674102;85;21716;-58
2021/03/06 01:26:25;;;;;;;1.75;0.75;;;;;;;0.36;47.18;100703.98;1674139;85;21106;-59
2021/03/06 01:28:53;;;;;;;2.05;0.85;;;;;;;0.33;46.93;100709.62;1674186;85;21309;-58
2021/03/06 01:31:21;;;;;;;2.75;0.75;;;;;;;0.34;46.23;100711.83;1674127;85;21325;-59
2021/03/06 01:33:48;;;;;;;1.52;0.80;;;;;;;0.30;45.71;100715.27;1674215;85;21791;-59
2021/03/06 01:36:16;;;;;;;5.53;0.70;;;;;;;0.25;45.70;100714.29;1674180;85;21094;-59
2021/03/06 01:38:43;;;;;;;3.75;0.70;;;;;;;0.27;45.04;100713.67;1674160;85;21351;-58
2021/03/06 01:41:11;;;;;;;1.70;0.80;;;;;;;0.23;44.98;100713.55;1674127;85;21321;-59
2021/03/06 01:43:38;;;;;;;2.05;0.70;;;;;;;0.21;44.51;100715.52;1674149;85;21312;-58
2021/03/06 01:46:06;;;;;;;2.37;0.70;;;;;;;0.19;44.22;100721.52;1674211;85;21341;-58
2021/03/06 01:48:33;;;;;;;1.25;0.70;;;;;;;0.19;43.47;100718.83;1674115;85;21094;-58
2021/03/06 01:51:01;;;;;;;1.52;0.53;;;;;;;0.14;43.13;100721.52;1674072;85;21086;-59
2021/03/06 01:53:29;;;;;;;2.45;0.75;;;;;;;0.08;43.33;100722.88;1674104;85;21096;-57
2021/03/06 01:55:57;;;;;;;1.92;0.65;;;;;;;0.05;43.54;100731.69;1650786;85;21368;-57
2021/03/06 01:58:24;;;;;;;2.15;1.00;;;;;;;0.03;43.72;100733.16;1674176;85;21354;-58
2021/03/06 02:00:52;;;;;;;2.55;0.70;;;;;;;0.02;43.94;100738.18;1674058;85;21922;-59
2021/03/06 02:03:21;;;;;;;1.67;0.75;;;;;;;0.03;44.32;100741.73;1674101;85;21130;-58
2021/03/06 02:05:48;;;;;;;0.78;0.50;;;;;;;0.06;44.75;100741.00;1674110;85;21327;-58
2021/03/06 02:08:16;;;;;;;2.98;0.82;;;;;;;0.10;45.23;100737.08;1674146;85;21316;-58
2021/03/06 02:10:44;;;;;;;2.17;0.85;;;;;;;0.12;45.24;100747.24;1674113;85;21136;-58
2021/03/06 02:13:51;;;;;;;3.60;0.80;;;;;;;0.10;45.44;100751.89;1650670;85;21083;-58
2021/03/06 02:16:42;;;;;;;1.25;0.80;;;;;;;0.11;45.61;100760.83;1671762;85;21098;-59
2021/03/06 02:19:45;;;;;;;4.10;0.80;;;;;;;0.15;45.57;100758.27;1671223;85;21453;-60
2021/03/06 02:22:56;;;;;;;0.88;0.60;;;;;;;0.09;45.68;100762.79;1670272;85;21088;-59
2021/03/06 02:25:54;;;;;;;1.90;0.75;;;;;;;-0.02;46.12;100764.95;1671523;85;21149;-59
2021/03/06 02:29:18;;;;;;;0.80;0.57;;;;;;;-0.08;45.99;100773.03;1671402;85;21326;-57
2021/03/06 02:31:46;;;;;;;1.70;0.90;;;;;;;-0.15;45.57;100773.63;1671480;85;21306;-59
2021/03/06 02:34:18;;;;;;;1.55;0.70;;;;;;;-0.23;45.82;100775.58;1671558;85;21082;-59
2021/03/06 02:36:54;;;;;;;2.40;0.75;;;;;;;-0.27;45.25;100774.59;1671440;85;21306;-58
2021/03/06 02:39:22;;;;;;;1.17;0.68;;;;;;;-0.29;45.31;100785.97;1671520;85;22112;-58
2021/03/06 02:41:49;;;;;;;1.02;0.60;;;;;;;-0.30;45.21;100782.41;1671459;85;21106;-57
2021/03/06 02:44:17;;;;;;;2.77;0.90;;;;;;;-0.36;44.96;100790.48;1646353;85;21302;-58
2021/03/06 02:46:45;;;;;;;2.72;0.60;;;;;;;-0.38;45.28;100788.88;1671608;85;21195;-60
2021/03/06 02:49:13;;;;;;;2.27;0.93;;;;;;;-0.38;44.83;100799.16;1671519;85;21039;-58
2021/03/06 02:51:41;;;;;;;2.05;1.10;;;;;;;-0.44;44.24;100797.43;1671438;85;21857;-58
2021/03/06 02:54:11;;;;;;;1.42;0.70;;;;;;;-0.49;44.12;100803.16;1671509;85;21110;-57
2021/03/06 02:56:38;;;;;;;1.87;0.70;;;;;;;-0.54;43.67;100808.53;1671453;85;21893;-57
2021/03/06 03:00:02;;;;;;;1.70;1.00;;;;;;;-0.57;43.94;100809.62;1646377;85;21205;-59
2021/03/06 03:02:56;;;;;;;2.15;0.90;;;;;;;-0.56;43.57;100814.02;1671587;85;21095;-57
2021/03/06 03:05:48;;;;;;;2.22;1.02;;;;;;;-0.56;43.50;100819.89;1671529;85;21066;-58
2021/03/06 03:08:40;;;;;;;1.47;0.90;;;;;;;-0.56;43.08;100827.97;1671529;85;21245;-57
2021/03/06 03:11:09;;;;;;;2.08;0.90;;;;;;;-0.60;42.61;100823.31;1671140;85;21304;-58
2021/03/06 03:13:43;;;;;;;2.37;0.90;;;;;;;-0.69;42.43;100826.66;1671517;85;21292;-59
2021/03/06 03:16:19;;;;;;;2.17;1.00;;;;;;;-0.74;42.51;100822.11;1672856;85;21250;-57
2021/03/06 03:19:09;;;;;;;1.82;0.90;;;;;;;-0.79;42.50;100821.59;1674136;85;21082;-58
2021/03/06 03:21:41;;;;;;;2.75;1.05;;;;;;;-0.83;42.62;100817.42;1674309;85;21090;-59
2021/03/06 03:24:15;;;;;;;2.98;0.80;;;;;;;-0.81;42.74;100820.86;1651558;85;21827;-59
2021/03/06 03:26:43;;;;;;;3.27;1.10;;;;;;;-0.78;42.73;100820.63;1651062;85;22145;-59
2021/03/06 03:29:13;;;;;;;7.25;1.10;;;;;;;-0.81;42.79;100830.27;1674069;85;21324;-58
2021/03/06 03:31:42;;;;;;;3.12;0.88;;;;;;;-0.84;42.86;100834.05;1674090;85;21070;-58
2021/03/06 03:34:10;;;;;;;1.95;1.00;;;;;;;-0.87;42.88;100841.00;1674095;85;21339;-58
2021/03/06 03:36:37;;;;;;;1.52;0.82;;;;;;;-0.86;42.90;100829.75;1674078;85;21418;-58
2021/03/06 03:39:05;;;;;;;2.80;1.05;;;;;;;-0.86;42.93;100836.48;1650886;85;21075;-58
2021/03/06 03:41:33;;;;;;;2.62;1.30;;;;;;;-0.88;42.81;100834.39;1674086;85;21282;-58
2021/03/06 03:44:02;;;;;;;3.62;1.07;;;;;;;-0.93;43.00;100837.42;1674074;85;21067;-60
2021/03/06 03:46:30;;;;;;;3.05;1.07;;;;;;;-0.97;42.95;100834.09;1674156;85;21324;-59
2021/03/06 03:48:58;;;;;;;2.37;0.98;;;;;;;-0.98;43.39;100839.59;1674084;85;21043;-58
2021/03/06 03:51:26;;;;;;;4.70;1.27;;;;;;;-0.95;43.38;100842.05;1674244;85;21287;-58
2021/03/06 03:53:53;;;;;;;3.62;1.02;;;;;;;-0.93;43.51;100852.22;1674130;85;21346;-58
2021/03/06 03:56:22;;;;;;;4.05;1.10;;;;;;;-0.90;43.67;100853.82;1673826;85;21103;-58
2021/03/06 03:58:49;;;;;;;4.47;1.22;;;;;;;-0.92;43.49;100846.34;1674063;85;21051;-60
2021/03/06 04:01:17;;;;;;;2.75;1.10;;;;;;;-0.99;43.73;100852.18;1674162;85;21742;-57
2021/03/06 04:03:44;;;;;;;4.17;0.98;;;;;;;-1.01;43.78;100851.44;1674100;85;21128;-58
2021/03/06 04:06:12;;;;;;;3.65;1.20;;;;;;;-1.00;44.03;100858.53;1674010;85;21875;-58
2021/03/06 04:08:39;;;;;;;4.97;1.00;;;;;;;-0.98;44.22;100852.55;1674261;85;21078;-58
2021/03/06 04:11:07;;;;;;;2.17;1.00;;;;;;;-0.96;43.87;100856.47;1668656;85;21424;-58
2021/03/06 04:25:47;;;;;;;3.60;1.40;;;;;;;-0.43;43.36;100861.91;1825051;77;22835;-62
2021/03/06 04:28:14;;;;;;;2.37;1.27;;;;;;;-0.59;43.40;100867.22;1783875;80;21413;-64
2021/03/06 04:30:42;;;;;;;5.05;1.72;;;;;;;-0.76;43.20;100866.62;1783822;80;21168;-63
2021/03/06 04:33:10;;;;;;;4.75;1.40;;;;;;;-0.85;43.61;100869.12;1784024;80;21341;-62
2021/03/06 04:35:37;;;;;;;2.98;1.40;;;;;;;-0.94;43.24;100880.56;1783837;80;21158;-63
2021/03/06 04:38:07;;;;;;;5.67;1.55;;;;;;;-1.09;43.51;100880.72;1783621;79;21174;-62
2021/03/06 04:40:34;;;;;;;5.22;1.50;;;;;;;-1.15;43.80;100873.09;1783927;80;21401;-64
2021/03/06 04:43:02;;;;;;;2.40;1.30;;;;;;;-1.12;43.77;100869.33;1783862;80;21241;-63
2021/03/06 04:45:30;;;;;;;4.62;1.35;;;;;;;-1.10;43.82;100875.45;1783792;79;21139;-63
2021/03/06 04:47:58;;;;;;;4.62;1.45;;;;;;;-1.07;43.95;100878.77;1783825;80;21118;-62
2021/03/06 04:50:26;;;;;;;2.85;1.12;;;;;;;-1.06;43.94;100869.73;1784049;80;21237;-63
2021/03/06 04:52:54;;;;;;;6.95;1.42;;;;;;;-1.01;43.82;100884.19;1783816;80;21385;-63
2021/03/06 04:55:21;;;;;;;3.72;1.35;;;;;;;-1.06;43.81;100888.56;1784042;80;21173;-63
2021/03/06 04:57:49;;;;;;;3.10;1.47;;;;;;;-1.07;43.93;100883.30;1783873;79;21154;-64
2021/03/06 05:00:17;;;;;;;3.40;0.95;;;;;;;-1.08;44.09;100889.16;1783798;79;21458;-61
2021/03/06 05:02:45;;;;;;;2.15;1.30;;;;;;;-1.11;44.04;100882.66;1784013;80;21142;-62
2021/03/06 05:05:13;;;;;;;2.45;1.12;;;;;;;-1.13;43.94;100889.98;1783788;79;21412;-61
2021/03/06 05:07:40;;;;;;;3.12;1.35;;;;;;;-1.12;44.16;100886.31;1783976;79;21184;-62
2021/03/06 05:10:09;;;;;;;5.95;1.35;;;;;;;-1.09;44.26;100891.95;1783805;80;21397;-62
2021/03/06 05:12:37;;;;;;;4.92;1.10;;;;;;;-1.06;43.98;100901.15;1783815;80;21163;-63
2021/03/06 05:15:06;;;;;;;6.12;1.37;;;;;;;-1.12;43.99;100903.80;1783716;80;21547;-62
2021/03/06 05:17:34;;;;;;;4.22;1.10;;;;;;;-1.12;44.29;100908.31;1783851;79;21213;-62
2021/03/06 05:20:03;;;;;;;3.70;1.12;;;;;;;-1.08;44.41;100907.12;1783756;79;21143;-61
2021/03/06 05:22:30;;;;;;;3.33;0.90;;;;;;;-1.03;44.42;100910.34;1783826;80;21135;-63
2021/03/06 05:24:58;;;;;;;2.50;1.25;;;;;;;-0.97;44.52;100913.92;1759501;80;21927;-62
2021/03/06 05:27:27;;;;;;;6.40;1.22;;;;;;;-0.92;44.43;100920.31;1752534;81;21146;-62
2021/03/06 05:29:54;;;;;;;3.45;1.60;;;;;;;-0.88;44.19;100929.88;1752953;81;21993;-61
2021/03/06 05:32:22;;;;;;;4.83;1.50;;;;;;;-0.89;44.18;100936.23;1753012;81;21355;-62
2021/03/06 05:34:49;;;;;;;3.52;1.62;;;;;;;-0.88;43.96;100938.81;1753041;81;21252;-63
2021/03/06 05:37:17;;;;;;;7.20;1.62;;;;;;;-0.85;43.58;100936.38;1752446;81;21321;-63
2021/03/06 05:39:44;;;;;;;5.10;1.52;;;;;;;-0.83;43.74;100942.51;1752419;82;21130;-63
2021/03/06 05:42:11;;;;;;;4.90;1.35;;;;;;;-0.81;43.63;100937.39;1752368;82;21463;-63
2021/03/06 05:44:39;;;;;;;5.12;1.37;;;;;;;-0.80;43.40;100954.39;1752400;82;21387;-63
2021/03/06 05:47:06;;;;;;;5.75;1.70;;;;;;;-0.83;42.95;100954.61;1752354;82;21122;-63
2021/03/06 05:49:36;;;;;;;5.28;1.95;;;;;;;-0.85;43.15;100953.38;1752455;82;21150;-62
2021/03/06 05:52:05;;;;;;;4.92;1.30;;;;;;;-0.79;43.13;100958.80;1752439;81;21435;-61
2021/03/06 05:54:36;;;;;;;5.95;1.67;;;;;;;-0.77;42.91;100958.20;1752538;82;21874;-63
2021/03/06 05:57:04;;;;;;;6.17;1.40;;;;;;;-0.77;42.46;100962.23;1752392;82;21134;-62
2021/03/06 05:59:32;;;;;;;6.03;1.42;;;;;;;-0.78;42.52;100976.17;1752571;82;21389;-63
2021/03/06 06:01:59;;;;;;;5.65;1.62;;;;;;;-0.72;42.62;100970.84;1752494;82;21123;-63
2021/03/06 06:04:28;;;;;;;3.65;1.75;;;;;;;-0.66;42.62;100975.28;1752514;82;21385;-62
2021/03/06 06:06:56;;;;;;;5.40;1.67;;;;;;;-0.59;42.36;100978.42;1752596;82;21442;-63
2021/03/06 06:09:23;;;;;;;2.98;1.20;;;;;;;-0.57;42.00;100985.90;1752553;82;21353;-62
2021/03/06 06:11:51;;;;;;;6.45;1.40;;;;;;;-0.53;42.05;100987.88;1752475;80;21388;-63
2021/03/06 06:14:20;;;;;;;9.75;1.57;;;;;;;-0.51;41.64;100993.52;1750200;81;21261;-63
2021/03/06 06:16:48;;;;;;;6.70;2.05;;;;;;;-0.51;41.51;100996.22;1752425;82;21297;-61
2021/03/06 06:19:16;;;;;;;3.50;1.50;;;;;;;-0.54;41.42;100999.13;1752395;82;21873;-63
2021/03/06 06:21:46;;;;;;;4.85;1.22;;;;;;;-0.56;41.77;101006.45;1752442;82;21185;-63
2021/03/06 06:24:19;;;;;;;8.83;2.40;;;;;;;-0.53;41.71;101004.03;1751299;80;21392;-63
2021/03/06 06:27:00;;;;;;;2.85;1.80;;;;;;;-0.43;41.50;101008.62;1739218;82;21232;-62
2021/03/06 06:29:45;;;;;;;2.70;1.20;;;;;;;-0.35;41.21;101007.57;1739389;82;21417;-63
2021/03/06 06:32:14;;;;;;;5.50;2.47;;;;;;;-0.31;41.14;101013.59;1739146;82;21265;-63
2021/03/06 06:34:45;;;;;;;6.17;2.05;;;;;;;-0.28;40.97;101021.93;1739054;82;21443;-62
2021/03/06 06:37:14;;;;;;;3.47;2.00;;;;;;;-0.31;40.45;101017.63;1727084;82;21478;-63
2021/03/06 06:39:43;;;;;;;4.12;1.80;;;;;;;-0.39;40.71;101018.19;1739254;82;21341;-65
2021/03/06 06:42:10;;;;;;;7.05;3.02;;;;;;;-0.43;40.71;101019.87;1739293;82;21841;-62
2021/03/06 06:44:38;;;;;;;7.60;2.50;;;;;;;-0.45;40.21;101025.86;1739190;81;21292;-64
2021/03/06 06:47:16;;;;;;;6.85;1.65;;;;;;;-0.47;40.29;101027.80;1739305;81;21376;-64
2021/03/06 06:49:49;;;;;;;6.72;1.72;;;;;;;-0.46;40.37;101027.69;1739245;81;21470;-62
2021/03/06 06:52:19;;;;;;;4.35;1.80;;;;;;;-0.44;40.09;101028.92;1739033;81;21179;-62
2021/03/06 06:54:56;;;;;;;4.08;1.52;;;;;;;-0.42;40.31;101031.88;1739193;82;21154;-63
2021/03/06 06:57:24;;;;;;;3.35;1.50;;;;;;;-0.38;40.53;101022.60;1739506;82;21242;-62
2021/03/06 07:00:09;;;;;;;11.18;2.40;;;;;;;-0.27;40.24;101023.65;1739162;81;21884;-62
2021/03/06 07:02:36;;;;;;;4.22;1.67;;;;;;;-0.19;39.68;101023.45;1739349;81;21425;-62
2021/03/06 07:05:06;;;;;;;5.20;1.67;;;;;;;-0.15;39.55;101028.98;1739309;81;21139;-62
2021/03/06 07:07:38;;;;;;;6.28;1.70;;;;;;;-0.06;38.86;101028.78;1739287;82;21171;-62
2021/03/06 07:10:13;;;;;;;5.30;1.90;;;;;;;-0.06;38.69;101027.44;1739109;81;21201;-61
2021/03/06 07:12:48;;;;;;;3.92;1.30;;;;;;;-0.02;38.40;101032.97;1739173;82;21339;-62
2021/03/06 07:15:17;;;;;;;4.70;1.60;;;;;;;0.06;38.23;101030.59;1738784;81;21831;-61
2021/03/06 07:17:47;;;;;;;5.58;1.40;;;;;;;0.15;38.05;101029.91;1739261;82;21178;-62
2021/03/06 07:20:27;;;;;;;3.40;1.40;;;;;;;0.22;37.58;101034.34;1739186;82;21139;-62
2021/03/06 07:22:57;;;;;;;3.87;1.10;;;;;;;0.25;37.53;101030.92;1739197;81;21448;-63
2021/03/06 07:25:26;;;;;;;6.15;1.80;;;;;;;0.27;37.40;101033.02;1744807;81;21400;-64
2021/03/06 07:27:54;;;;;;;8.70;1.77;;;;;;;0.34;37.33;101029.86;1752440;82;21832;-62
2021/03/06 07:30:21;;;;;;;4.92;1.90;;;;;;;0.40;36.92;101034.78;1752530;82;21716;-62
2021/03/06 07:32:49;;;;;;;3.17;1.60;;;;;;;0.46;37.27;101040.56;1752549;82;21394;-62
2021/03/06 07:35:16;;;;;;;4.22;1.30;;;;;;;0.58;36.50;101038.77;1752453;82;21944;-65
2021/03/06 07:37:44;;;;;;;3.98;1.35;;;;;;;0.59;36.12;101043.17;1752512;82;21398;-62
2021/03/06 07:40:14;;;;;;;5.80;1.67;;;;;;;0.59;36.27;101037.30;1752471;81;21158;-63
2021/03/06 07:42:46;;;;;;;3.80;1.20;;;;;;;0.67;36.56;101044.83;1752567;82;21491;-63
2021/03/06 07:45:21;;;;;;;8.70;2.05;;;;;;;0.78;36.64;101049.39;1752653;82;21365;-62
2021/03/06 07:48:07;;;;;;;3.72;1.45;;;;;;;0.89;36.75;101049.41;1752403;81;21829;-63
2021/03/06 07:50:43;;;;;;;4.53;1.40;;;;;;;1.01;36.75;101048.94;1748848;82;21194;-63
2021/03/06 07:53:11;;;;;;;5.15;1.82;;;;;;;1.07;35.59;101047.11;1752393;82;21389;-61
2021/03/06 07:55:38;;;;;;;3.80;1.60;;;;;;;1.07;35.16;101046.61;1752473;82;21399;-62
2021/03/06 07:58:20;;;;;;;4.28;1.32;;;;;;;1.09;35.50;101046.49;1752497;82;21134;-63
2021/03/06 08:00:57;;;;;;;8.63;1.70;;;;;;;1.12;35.14;101039.51;1752043;81;21400;-63
2021/03/06 08:03:33;;;;;;;2.67;1.35;;;;;;;1.17;35.43;101042.20;1752469;81;21158;-62
2021/03/06 08:06:18;;;;;;;11.00;2.60;;;;;;;1.24;34.57;101047.98;1752476;80;21253;-63
2021/03/06 08:08:57;;;;;;;3.62;1.90;;;;;;;1.26;34.78;101040.61;1752609;82;21354;-64
2021/03/06 08:11:38;;;;;;;14.43;2.75;;;;;;;1.34;34.83;101042.73;1709637;83;21969;-63
2021/03/06 08:14:27;;;;;;;4.83;1.30;;;;;;;1.41;34.71;101049.36;1698612;84;21202;-62
2021/03/06 08:16:56;;;;;;;2.62;1.40;;;;;;;1.49;34.52;101045.06;1698374;84;21200;-64
2021/03/06 08:19:24;;;;;;;9.63;1.60;;;;;;;1.56;34.29;101051.69;1698499;84;21419;-63
2021/03/06 08:21:53;;;;;;;5.17;1.60;;;;;;;1.53;33.85;101055.98;1698401;84;21961;-63
2021/03/06 08:24:26;;;;;;;4.85;2.00;;;;;;;1.45;33.55;101047.64;1698564;83;21918;-63
2021/03/06 08:27:09;;;;;;;4.10;1.40;;;;;;;1.43;33.75;101050.95;1695867;84;21128;-63
2021/03/06 08:29:39;;;;;;;7.47;1.75;;;;;;;1.41;34.04;101050.71;1746048;80;21269;-63
2021/03/06 08:32:30;;;;;;;8.68;1.55;;;;;;;1.41;34.26;101050.22;1746956;82;21421;-62
2021/03/06 08:35:20;;;;;;;7.17;1.40;;;;;;;1.44;34.15;101043.22;1746979;80;21163;-63
2021/03/06 08:37:49;;;;;;;5.10;1.45;;;;;;;1.54;34.30;101044.69;1743818;81;21174;-64
2021/03/06 08:40:24;;;;;;;3.80;1.22;;;;;;;1.64;33.84;101045.66;1746860;82;21266;-63
2021/03/06 08:42:55;;;;;;;3.92;1.12;;;;;;;1.74;33.33;101044.42;1746796;82;22050;-65
2021/03/06 08:45:30;;;;;;;2.80;1.40;;;;;;;1.85;33.37;101049.80;1750704;81;21413;-65
2021/03/06 08:48:04;;;;;;;3.40;0.85;;;;;;;1.92;33.37;101040.20;1747036;82;21260;-63
2021/03/06 08:50:35;;;;;;;10.90;2.20;;;;;;;2.01;33.26;101028.66;1747011;82;21762;-64
2021/03/06 08:53:12;;;;;;;5.08;1.52;;;;;;;2.08;32.68;101039.33;1746958;82;21398;-63
2021/03/06 08:55:42;;;;;;;7.47;1.45;;;;;;;2.06;32.67;101036.39;1747173;82;21851;-65
2021/03/06 08:58:11;;;;;;;5.90;1.40;;;;;;;2.02;32.57;101039.84;1747120;82;21127;-64
2021/03/06 09:00:47;;;;;;;2.37;1.07;;;;;;;2.01;32.10;101041.32;1747116;82;21449;-63
2021/03/06 09:03:25;;;;;;;3.62;0.88;;;;;;;2.04;32.61;101033.81;1747042;82;21178;-63
2021/03/06 09:05:57;;;;;;;5.78;1.50;;;;;;;2.13;32.44;101031.70;1745184;81;21389;-64
2021/03/06 09:08:27;;;;;;;3.72;1.50;;;;;;;2.20;32.68;101033.39;1747092;82;21119;-63
2021/03/06 09:10:57;;;;;;;3.08;1.30;;;;;;;2.26;32.76;101034.23;1747275;82;21127;-67
2021/03/06 09:13:28;;;;;;;3.33;1.30;;;;;;;2.32;32.56;101032.86;1747226;82;21535;-65
2021/03/06 09:16:05;;;;;;;2.33;1.10;;;;;;;2.39;32.51;101029.50;1747270;82;21515;-66
2021/03/06 09:18:35;;;;;;;3.72;1.30;;;;;;;2.47;32.34;101034.27;1747367;81;21410;-66
2021/03/06 09:21:09;;;;;;;6.58;1.52;;;;;;;2.49;32.11;101026.87;1737157;80;21181;-64
2021/03/06 09:23:39;;;;;;;4.00;1.10;;;;;;;2.55;32.26;101029.92;1729414;80;21174;-66
2021/03/06 09:26:13;;;;;;;3.77;1.22;;;;;;;2.65;32.14;101034.08;1700107;83;21549;-66
2021/03/06 09:28:41;;;;;;;2.30;1.15;;;;;;;2.67;31.93;101034.80;1735092;82;21186;-66
2021/03/06 09:31:28;;;;;;;3.65;1.10;;;;;;;2.73;31.59;101025.30;1743436;82;21139;-67
2021/03/06 09:33:56;;;;;;;7.83;1.50;;;;;;;2.76;31.18;101039.43;1743432;82;21249;-69
2021/03/06 09:36:30;;;;;;;2.10;1.00;;;;;;;2.72;31.21;101033.92;1744505;82;21159;-67
2021/03/06 09:39:00;;;;;;;6.17;1.80;;;;;;;2.77;31.10;101039.80;1735004;81;21226;-67
2021/03/06 09:41:30;;;;;;;5.92;1.98;;;;;;;2.82;31.31;101039.39;1727841;81;21213;-66
2021/03/06 09:43:59;;;;;;;5.33;1.55;;;;;;;2.88;30.61;101040.22;1727809;83;21523;-69
2021/03/06 09:46:30;;;;;;;5.65;1.87;;;;;;;2.92;30.30;101029.98;1727773;81;21294;-67
2021/03/06 09:49:09;;;;;;;7.80;2.22;;;;;;;2.97;30.48;101031.80;1727716;83;21460;-65
2021/03/06 09:51:46;;;;;;;7.75;2.00;;;;;;;3.09;30.04;101030.23;1728102;80;21193;-68
2021/03/06 09:54:15;;;;;;;3.62;1.42;;;;;;;3.17;29.82;101036.33;1723402;83;21921;-67
2021/03/06 09:56:54;;;;;;;3.72;1.12;;;;;;;3.25;29.25;101039.25;1727432;81;21325;-69
2021/03/06 09:59:23;;;;;;;2.85;1.22;;;;;;;3.23;29.36;101026.80;1730159;83;21286;-65
2021/03/06 10:01:51;;;;;;;3.65;1.32;;;;;;;3.29;29.54;101020.38;1730101;83;21861;-68
2021/03/06 10:04:21;;;;;;;1.32;0.80;;;;;;;3.36;29.75;101021.55;1730151;82;21415;-65
2021/03/06 10:06:54;;;;;;;3.85;1.10;;;;;;;3.38;29.39;101016.86;1730043;83;22069;-68
2021/03/06 10:09:23;;;;;;;2.25;1.30;;;;;;;3.43;29.34;101028.64;1730177;83;21458;-64
2021/03/06 10:11:55;;;;;;;3.30;1.35;;;;;;;3.44;29.34;101016.81;1730283;81;21195;-64
2021/03/06 10:14:25;;;;;;;5.37;1.47;;;;;;;3.56;29.46;101028.40;1730107;83;21183;-65
2021/03/06 10:16:59;;;;;;;4.30;1.40;;;;;;;3.70;29.47;101019.89;1730173;81;21562;-62
2021/03/06 10:19:30;;;;;;;5.00;1.77;;;;;;;3.81;29.34;101003.02;1714848;83;21154;-62
2021/03/06 10:22:07;;;;;;;3.92;1.65;;;;;;;3.95;29.04;101013.13;1715279;83;21180;-62
2021/03/06 10:24:58;;;;;;;5.43;1.43;;;;;;;3.97;28.80;101005.21;1715506;82;21805;-62
2021/03/06 10:27:41;;;;;;;6.53;1.77;;;;;;;4.01;29.27;101008.00;1710692;83;21911;-62
2021/03/06 10:30:25;;;;;;;3.75;1.45;;;;;;;4.13;29.26;101002.80;1726712;82;21298;-65
2021/03/06 10:32:56;;;;;;;6.87;2.15;;;;;;;4.29;29.57;100993.25;1739453;81;21210;-65
2021/03/06 10:35:37;;;;;;;4.28;1.70;;;;;;;4.36;29.19;100999.81;1739220;81;21937;-63
2021/03/06 10:38:23;;;;;;;3.70;1.57;;;;;;;4.26;28.97;101009.31;1739286;82;21454;-62
2021/03/06 10:40:55;;;;;;;5.30;1.80;;;;;;;4.09;28.72;101004.09;1739420;81;21408;-64
2021/03/06 10:43:40;;;;;;;15.93;2.10;;;;;;;3.97;28.77;100986.73;1739382;82;21432;-65
2021/03/06 10:46:17;;;;;;;5.72;1.72;;;;;;;3.94;28.92;100986.52;1739304;82;21338;-66
2021/03/06 10:48:54;;;;;;;5.75;1.57;;;;;;;3.89;28.68;100981.98;1739333;82;21158;-65
2021/03/06 10:51:22;;;;;;;6.83;1.70;;;;;;;3.73;29.51;100990.66;1739468;81;21170;-64
2021/03/06 10:54:03;;;;;;;7.75;2.02;;;;;;;3.72;29.57;100982.17;1739271;81;21425;-61
2021/03/06 10:56:31;;;;;;;4.85;1.80;;;;;;;3.73;29.65;100966.27;1739411;82;21232;-62
2021/03/06 10:59:00;;;;;;;4.62;2.12;;;;;;;3.81;29.49;100987.25;1739249;82;21230;-63
2021/03/06 11:01:33;;;;;;;9.18;2.40;;;;;;;3.84;29.46;100982.91;1739196;81;21179;-63
2021/03/06 11:04:02;;;;;;;4.90;2.35;;;;;;;3.91;29.61;100984.59;1739434;81;21174;-63
2021/03/06 11:06:30;;;;;;;7.75;3.17;;;;;;;3.92;29.15;100983.09;1739247;81;21397;-63
2021/03/06 11:09:05;;;;;;;5.90;2.12;;;;;;;3.93;29.43;100979.87;1728696;82;21985;-62
2021/03/06 11:11:35;;;;;;;;;;;;;;;3.99;29.23;100970.69;1740869;81;21427;-63
2021/03/06 11:14:03;;;;;;;7.58;2.05;;;;;;;4.07;29.43;100974.90;1739412;81;20198;-62
2021/03/06 11:16:38;;;;;;;14.83;2.25;;;;;;;4.13;28.69;100974.83;1739095;82;21428;-61
2021/03/06 11:19:07;;;;;;;7.72;1.90;;;;;;;4.05;28.78;100978.25;1739462;82;21178;-68
2021/03/06 11:21:34;;;;;;;10.32;2.30;;;;;;;3.90;28.43;100973.35;1739251;82;21380;-61
2021/03/06 11:24:03;;;;;;;4.75;1.40;;;;;;;3.83;28.67;100973.91;1739129;82;21373;-63
2021/03/06 11:26:30;;;;;;;1.82;1.00;;;;;;;3.94;28.88;100977.53;1743160;82;21304;-61
2021/03/06 11:28:58;;;;;;;3.15;0.90;;;;;;;3.97;28.67;100979.45;1735543;81;21467;-63
2021/03/06 11:31:26;;;;;;;4.05;1.17;;;;;;;3.89;29.22;100989.26;1752555;82;21463;-64
2021/03/06 11:33:54;;;;;;;2.22;0.88;;;;;;;3.90;29.28;100972.00;1752568;82;21150;-68
2021/03/06 11:36:23;;;;;;;2.17;1.00;;;;;;;3.97;29.60;100979.95;1752542;82;21849;-65
2021/03/06 11:38:50;;;;;;;3.40;1.17;;;;;;;4.07;29.55;100973.54;1752646;81;21715;-65
2021/03/06 11:41:18;;;;;;;2.20;0.90;;;;;;;4.17;29.57;100980.83;1752522;82;21345;-66
2021/03/06 11:43:46;;;;;;;2.47;0.90;;;;;;;4.16;29.72;100963.70;1752579;81;21142;-63
2021/03/06 11:46:14;;;;;;;2.92;1.27;;;;;;;4.17;29.84;100963.20;1752553;82;21452;-64
2021/03/06 11:48:43;;;;;;;2.45;1.15;;;;;;;4.13;30.27;100970.27;1752558;80;21158;-62
2021/03/06 11:51:11;;;;;;;3.12;1.25;;;;;;;4.13;29.86;100970.77;1752613;81;21165;-66
2021/03/06 11:53:38;;;;;;;5.10;1.70;;;;;;;4.06;30.05;100965.05;1752681;81;21437;-66
2021/03/06 11:56:06;;;;;;;4.12;1.52;;;;;;;3.98;30.53;100967.61;1737481;82;21214;-69
2021/03/06 11:58:34;;;;;;;4.85;1.45;;;;;;;3.81;31.07;100971.84;1743510;80;21299;-66
2021/03/06 12:01:02;;;;;;;5.03;1.30;;;;;;;3.72;31.29;100971.83;1737547;80;21358;-67